sensor_id;sensor_type;location;lat;lon;timestamp;temperature;humidity
39021;DHT22;25188;51.958;5.842;2022-12-05T00:00:52;4.70;95.60
39021;DHT22;25188;51.958;5.842;2022-12-05T00:03:18;4.60;95.60
39021;DHT22;25188;51.958;5.842;2022-12-05T00:05:44;4.60;95.60
39021;DHT22;25188;51.958;5.842;2022-12-05T00:08:10;4.70;95.70
39021;DHT22;25188;51.958;5.842;2022-12-05T00:10:36;4.60;95.70
39021;DHT22;25188;51.958;5.842;2022-12-05T00:13:02;4.80;95.70
39021;DHT22;25188;51.958;5.842;2022-12-05T00:15:28;4.60;95.70
39021;DHT22;25188;51.958;5.842;2022-12-05T00:17:54;4.70;95.80
39021;DHT22;25188;51.958;5.842;2022-12-05T00:20:19;4.60;95.90
39021;DHT22;25188;51.958;5.842;2022-12-05T00:22:45;4.70;96.00
39021;DHT22;25188;51.958;5.842;2022-12-05T00:25:11;4.70;96.10
39021;DHT22;25188;51.958;5.842;2022-12-05T00:27:36;4.70;96.00
39021;DHT22;25188;51.958;5.842;2022-12-05T00:30:03;4.70;96.10
39021;DHT22;25188;51.958;5.842;2022-12-05T00:32:29;4.60;96.20
39021;DHT22;25188;51.958;5.842;2022-12-05T00:34:55;4.60;96.50
39021;DHT22;25188;51.958;5.842;2022-12-05T00:37:21;4.60;96.20
39021;DHT22;25188;51.958;5.842;2022-12-05T00:39:47;4.70;96.50
39021;DHT22;25188;51.958;5.842;2022-12-05T00:42:12;4.60;96.50
39021;DHT22;25188;51.958;5.842;2022-12-05T00:44:38;4.60;96.90
39021;DHT22;25188;51.958;5.842;2022-12-05T00:47:04;4.60;96.70
39021;DHT22;25188;51.958;5.842;2022-12-05T00:49:30;4.60;96.80
39021;DHT22;25188;51.958;5.842;2022-12-05T00:51:55;4.60;96.80
39021;DHT22;25188;51.958;5.842;2022-12-05T00:54:21;4.60;97.00
39021;DHT22;25188;51.958;5.842;2022-12-05T00:56:47;4.60;97.30
39021;DHT22;25188;51.958;5.842;2022-12-05T00:59:17;4.60;97.10
39021;DHT22;25188;51.958;5.842;2022-12-05T01:01:45;4.60;97.40
39021;DHT22;25188;51.958;5.842;2022-12-05T01:04:17;4.60;97.40
39021;DHT22;25188;51.958;5.842;2022-12-05T01:06:43;4.60;97.60
39021;DHT22;25188;51.958;5.842;2022-12-05T01:09:12;4.60;97.70
39021;DHT22;25188;51.958;5.842;2022-12-05T01:11:38;4.60;97.60
39021;DHT22;25188;51.958;5.842;2022-12-05T01:14:04;4.60;97.70
39021;DHT22;25188;51.958;5.842;2022-12-05T01:16:33;4.70;97.90
39021;DHT22;25188;51.958;5.842;2022-12-05T01:19:04;4.70;98.00
39021;DHT22;25188;51.958;5.842;2022-12-05T01:21:30;4.50;98.00
39021;DHT22;25188;51.958;5.842;2022-12-05T01:23:56;4.60;98.20
39021;DHT22;25188;51.958;5.842;2022-12-05T01:26:23;4.60;98.40
39021;DHT22;25188;51.958;5.842;2022-12-05T01:28:49;4.60;98.20
39021;DHT22;25188;51.958;5.842;2022-12-05T01:31:28;4.60;98.30
39021;DHT22;25188;51.958;5.842;2022-12-05T01:33:56;4.60;98.50
39021;DHT22;25188;51.958;5.842;2022-12-05T01:36:23;4.60;98.60
39021;DHT22;25188;51.958;5.842;2022-12-05T01:38:50;4.60;98.70
39021;DHT22;25188;51.958;5.842;2022-12-05T01:41:22;4.60;98.80
39021;DHT22;25188;51.958;5.842;2022-12-05T01:46:18;4.60;99.00
39021;DHT22;25188;51.958;5.842;2022-12-05T01:48:44;4.60;99.10
39021;DHT22;25188;51.958;5.842;2022-12-05T01:51:10;4.60;99.10
39021;DHT22;25188;51.958;5.842;2022-12-05T01:53:36;4.60;99.30
39021;DHT22;25188;51.958;5.842;2022-12-05T01:56:02;4.50;99.30
39021;DHT22;25188;51.958;5.842;2022-12-05T01:58:31;4.60;99.30
39021;DHT22;25188;51.958;5.842;2022-12-05T02:00:59;4.60;99.30
39021;DHT22;25188;51.958;5.842;2022-12-05T02:03:24;4.60;99.30
39021;DHT22;25188;51.958;5.842;2022-12-05T02:05:52;4.60;99.50
39021;DHT22;25188;51.958;5.842;2022-12-05T02:08:18;4.60;99.70
39021;DHT22;25188;51.958;5.842;2022-12-05T02:10:50;4.60;99.70
39021;DHT22;25188;51.958;5.842;2022-12-05T02:16:38;4.70;99.80
39021;DHT22;25188;51.958;5.842;2022-12-05T02:24:48;4.70;99.90
39021;DHT22;25188;51.958;5.842;2022-12-05T02:27:46;4.70;99.90
39021;DHT22;25188;51.958;5.842;2022-12-05T02:30:20;4.70;99.90
39021;DHT22;25188;51.958;5.842;2022-12-05T02:33:04;4.70;99.90
39021;DHT22;25188;51.958;5.842;2022-12-05T02:41:44;4.70;99.90
39021;DHT22;25188;51.958;5.842;2022-12-05T02:46:43;4.70;99.90
39021;DHT22;25188;51.958;5.842;2022-12-05T02:49:15;4.70;99.90
39021;DHT22;25188;51.958;5.842;2022-12-05T02:51:46;4.80;99.90
39021;DHT22;25188;51.958;5.842;2022-12-05T02:54:18;4.70;99.90
39021;DHT22;25188;51.958;5.842;2022-12-05T02:56:45;4.80;99.90
39021;DHT22;25188;51.958;5.842;2022-12-05T02:59:12;4.80;99.90
39021;DHT22;25188;51.958;5.842;2022-12-05T03:01:37;4.80;99.90
39021;DHT22;25188;51.958;5.842;2022-12-05T03:04:05;4.80;99.90
39021;DHT22;25188;51.958;5.842;2022-12-05T03:11:59;4.80;99.90
39021;DHT22;25188;51.958;5.842;2022-12-05T03:14:30;4.90;99.90
39021;DHT22;25188;51.958;5.842;2022-12-05T03:17:00;5.00;99.90
39021;DHT22;25188;51.958;5.842;2022-12-05T03:19:31;4.90;99.90
39021;DHT22;25188;51.958;5.842;2022-12-05T03:22:07;4.90;99.90
39021;DHT22;25188;51.958;5.842;2022-12-05T03:24:37;4.90;99.90
39021;DHT22;25188;51.958;5.842;2022-12-05T03:32:39;5.00;99.90
39021;DHT22;25188;51.958;5.842;2022-12-05T03:35:22;5.00;99.90
39021;DHT22;25188;51.958;5.842;2022-12-05T03:37:56;5.00;99.90
39021;DHT22;25188;51.958;5.842;2022-12-05T03:43:13;5.00;99.90
39021;DHT22;25188;51.958;5.842;2022-12-05T03:45:48;5.00;99.90
39021;DHT22;25188;51.958;5.842;2022-12-05T03:50:46;5.00;99.90
39021;DHT22;25188;51.958;5.842;2022-12-05T03:53:21;5.00;99.90
39021;DHT22;25188;51.958;5.842;2022-12-05T03:55:57;5.00;99.90
39021;DHT22;25188;51.958;5.842;2022-12-05T03:58:36;5.10;99.90
39021;DHT22;25188;51.958;5.842;2022-12-05T04:01:03;5.00;99.90
39021;DHT22;25188;51.958;5.842;2022-12-05T04:03:39;5.10;99.90
39021;DHT22;25188;51.958;5.842;2022-12-05T04:06:31;5.10;99.90
39021;DHT22;25188;51.958;5.842;2022-12-05T04:09:14;5.10;99.90
39021;DHT22;25188;51.958;5.842;2022-12-05T04:11:45;5.20;99.90
39021;DHT22;25188;51.958;5.842;2022-12-05T04:14:30;5.10;99.90
39021;DHT22;25188;51.958;5.842;2022-12-05T04:17:05;5.20;99.90
39021;DHT22;25188;51.958;5.842;2022-12-05T04:19:52;5.20;99.90
39021;DHT22;25188;51.958;5.842;2022-12-05T04:22:38;5.30;99.90
39021;DHT22;25188;51.958;5.842;2022-12-05T04:25:07;5.20;99.90
39021;DHT22;25188;51.958;5.842;2022-12-05T04:30:47;5.20;99.90
39021;DHT22;25188;51.958;5.842;2022-12-05T04:33:43;5.20;99.90
39021;DHT22;25188;51.958;5.842;2022-12-05T04:36:21;5.20;99.90
39021;DHT22;25188;51.958;5.842;2022-12-05T04:38:52;5.20;99.90
39021;DHT22;25188;51.958;5.842;2022-12-05T04:41:29;5.20;99.90
39021;DHT22;25188;51.958;5.842;2022-12-05T04:43:58;5.20;99.90
39021;DHT22;25188;51.958;5.842;2022-12-05T04:46:26;5.20;99.90
39021;DHT22;25188;51.958;5.842;2022-12-05T04:48:55;5.20;99.90
39021;DHT22;25188;51.958;5.842;2022-12-05T04:51:24;5.20;99.90
39021;DHT22;25188;51.958;5.842;2022-12-05T04:53:55;5.20;99.90
39021;DHT22;25188;51.958;5.842;2022-12-05T04:56:28;5.20;99.90
39021;DHT22;25188;51.958;5.842;2022-12-05T04:58:54;5.20;99.90
39021;DHT22;25188;51.958;5.842;2022-12-05T05:01:26;5.20;99.90
39021;DHT22;25188;51.958;5.842;2022-12-05T05:03:58;5.20;99.90
39021;DHT22;25188;51.958;5.842;2022-12-05T05:06:26;5.20;99.90
39021;DHT22;25188;51.958;5.842;2022-12-05T05:08:54;5.20;99.90
39021;DHT22;25188;51.958;5.842;2022-12-05T05:11:22;5.20;99.90
39021;DHT22;25188;51.958;5.842;2022-12-05T05:13:48;5.20;99.90
39021;DHT22;25188;51.958;5.842;2022-12-05T05:16:16;5.10;99.90
39021;DHT22;25188;51.958;5.842;2022-12-05T05:18:43;5.20;99.90
39021;DHT22;25188;51.958;5.842;2022-12-05T05:21:26;5.10;99.90
39021;DHT22;25188;51.958;5.842;2022-12-05T05:23:53;5.20;99.90
39021;DHT22;25188;51.958;5.842;2022-12-05T05:26:20;5.20;99.90
39021;DHT22;25188;51.958;5.842;2022-12-05T05:28:46;5.30;99.90
39021;DHT22;25188;51.958;5.842;2022-12-05T05:31:12;5.20;99.90
39021;DHT22;25188;51.958;5.842;2022-12-05T05:33:38;5.20;99.90
39021;DHT22;25188;51.958;5.842;2022-12-05T05:36:05;5.30;99.90
39021;DHT22;25188;51.958;5.842;2022-12-05T05:38:39;5.30;99.90
39021;DHT22;25188;51.958;5.842;2022-12-05T05:41:05;5.30;99.90
39021;DHT22;25188;51.958;5.842;2022-12-05T05:43:36;5.30;99.90
39021;DHT22;25188;51.958;5.842;2022-12-05T05:46:03;5.20;99.90
39021;DHT22;25188;51.958;5.842;2022-12-05T05:48:29;5.30;99.90
39021;DHT22;25188;51.958;5.842;2022-12-05T05:50:58;5.30;99.90
39021;DHT22;25188;51.958;5.842;2022-12-05T05:53:24;5.30;99.90
39021;DHT22;25188;51.958;5.842;2022-12-05T05:55:49;5.40;99.90
39021;DHT22;25188;51.958;5.842;2022-12-05T05:58:15;5.40;99.90
39021;DHT22;25188;51.958;5.842;2022-12-05T06:00:41;5.40;99.90
39021;DHT22;25188;51.958;5.842;2022-12-05T06:03:06;5.40;99.90
39021;DHT22;25188;51.958;5.842;2022-12-05T06:05:32;5.40;99.90
39021;DHT22;25188;51.958;5.842;2022-12-05T06:07:58;5.40;99.90
39021;DHT22;25188;51.958;5.842;2022-12-05T06:10:23;5.40;99.90
39021;DHT22;25188;51.958;5.842;2022-12-05T06:12:49;5.40;99.90
39021;DHT22;25188;51.958;5.842;2022-12-05T06:15:15;5.40;99.90
39021;DHT22;25188;51.958;5.842;2022-12-05T06:17:40;5.40;99.90
39021;DHT22;25188;51.958;5.842;2022-12-05T06:20:07;5.40;99.90
39021;DHT22;25188;51.958;5.842;2022-12-05T06:22:33;5.40;99.90
39021;DHT22;25188;51.958;5.842;2022-12-05T06:24:58;5.50;99.90
39021;DHT22;25188;51.958;5.842;2022-12-05T06:27:24;5.40;99.90
39021;DHT22;25188;51.958;5.842;2022-12-05T06:29:50;5.50;99.90
39021;DHT22;25188;51.958;5.842;2022-12-05T06:32:15;5.50;99.90
39021;DHT22;25188;51.958;5.842;2022-12-05T06:34:41;5.50;99.90
39021;DHT22;25188;51.958;5.842;2022-12-05T06:37:07;5.60;99.90
39021;DHT22;25188;51.958;5.842;2022-12-05T06:39:32;5.50;99.90
39021;DHT22;25188;51.958;5.842;2022-12-05T06:41:58;5.40;99.90
39021;DHT22;25188;51.958;5.842;2022-12-05T06:44:24;5.50;99.90
39021;DHT22;25188;51.958;5.842;2022-12-05T06:46:52;5.40;99.90
39021;DHT22;25188;51.958;5.842;2022-12-05T06:49:18;5.50;99.90
39021;DHT22;25188;51.958;5.842;2022-12-05T06:51:44;5.40;99.90
39021;DHT22;25188;51.958;5.842;2022-12-05T06:54:13;5.60;99.90
39021;DHT22;25188;51.958;5.842;2022-12-05T06:56:39;5.50;99.90
39021;DHT22;25188;51.958;5.842;2022-12-05T06:59:05;5.50;99.90
39021;DHT22;25188;51.958;5.842;2022-12-05T07:01:30;5.50;99.90
39021;DHT22;25188;51.958;5.842;2022-12-05T07:04:13;5.50;99.90
39021;DHT22;25188;51.958;5.842;2022-12-05T07:06:41;5.50;99.90
39021;DHT22;25188;51.958;5.842;2022-12-05T07:09:06;5.50;99.90
39021;DHT22;25188;51.958;5.842;2022-12-05T07:11:32;5.50;99.90
39021;DHT22;25188;51.958;5.842;2022-12-05T07:13:58;5.60;99.90
39021;DHT22;25188;51.958;5.842;2022-12-05T07:16:23;5.50;99.90
39021;DHT22;25188;51.958;5.842;2022-12-05T07:18:49;5.50;99.90
39021;DHT22;25188;51.958;5.842;2022-12-05T07:21:15;5.60;99.90
39021;DHT22;25188;51.958;5.842;2022-12-05T07:23:42;5.60;99.90
39021;DHT22;25188;51.958;5.842;2022-12-05T07:26:11;5.60;99.90
39021;DHT22;25188;51.958;5.842;2022-12-05T07:28:37;5.60;99.90
39021;DHT22;25188;51.958;5.842;2022-12-05T07:31:09;5.70;99.90
39021;DHT22;25188;51.958;5.842;2022-12-05T07:33:35;5.60;99.90
39021;DHT22;25188;51.958;5.842;2022-12-05T07:36:02;5.60;99.90
39021;DHT22;25188;51.958;5.842;2022-12-05T07:38:28;5.60;99.90
39021;DHT22;25188;51.958;5.842;2022-12-05T07:40:54;5.60;99.90
39021;DHT22;25188;51.958;5.842;2022-12-05T07:43:20;5.60;99.90
39021;DHT22;25188;51.958;5.842;2022-12-05T07:45:46;5.60;99.90
39021;DHT22;25188;51.958;5.842;2022-12-05T07:48:11;5.60;99.90
39021;DHT22;25188;51.958;5.842;2022-12-05T07:50:37;5.70;99.90
39021;DHT22;25188;51.958;5.842;2022-12-05T07:53:02;5.70;99.90
39021;DHT22;25188;51.958;5.842;2022-12-05T07:55:28;5.70;99.90
39021;DHT22;25188;51.958;5.842;2022-12-05T07:57:54;5.70;99.90
39021;DHT22;25188;51.958;5.842;2022-12-05T08:00:20;5.70;99.90
39021;DHT22;25188;51.958;5.842;2022-12-05T08:02:46;5.70;99.90
39021;DHT22;25188;51.958;5.842;2022-12-05T08:05:11;5.70;99.90
39021;DHT22;25188;51.958;5.842;2022-12-05T08:07:37;5.70;99.90
39021;DHT22;25188;51.958;5.842;2022-12-05T08:10:03;5.70;99.90
39021;DHT22;25188;51.958;5.842;2022-12-05T08:12:29;5.80;99.90
39021;DHT22;25188;51.958;5.842;2022-12-05T08:14:55;5.70;99.90
39021;DHT22;25188;51.958;5.842;2022-12-05T08:17:20;5.70;99.90
39021;DHT22;25188;51.958;5.842;2022-12-05T08:19:46;5.70;99.90
39021;DHT22;25188;51.958;5.842;2022-12-05T08:22:11;5.70;99.90
39021;DHT22;25188;51.958;5.842;2022-12-05T08:24:37;5.70;99.90
39021;DHT22;25188;51.958;5.842;2022-12-05T08:27:04;5.80;99.90
39021;DHT22;25188;51.958;5.842;2022-12-05T08:29:30;5.80;99.90
39021;DHT22;25188;51.958;5.842;2022-12-05T08:31:55;5.80;99.90
39021;DHT22;25188;51.958;5.842;2022-12-05T08:34:21;5.80;99.90
39021;DHT22;25188;51.958;5.842;2022-12-05T08:36:47;5.80;99.90
39021;DHT22;25188;51.958;5.842;2022-12-05T08:39:15;5.90;99.90
39021;DHT22;25188;51.958;5.842;2022-12-05T08:41:42;5.80;99.90
39021;DHT22;25188;51.958;5.842;2022-12-05T08:44:09;5.80;99.90
39021;DHT22;25188;51.958;5.842;2022-12-05T08:46:36;5.90;99.90
39021;DHT22;25188;51.958;5.842;2022-12-05T08:49:04;5.90;99.90
39021;DHT22;25188;51.958;5.842;2022-12-05T08:51:30;5.90;99.90
39021;DHT22;25188;51.958;5.842;2022-12-05T08:53:56;5.90;99.90
39021;DHT22;25188;51.958;5.842;2022-12-05T08:56:22;5.90;99.90
39021;DHT22;25188;51.958;5.842;2022-12-05T08:58:48;6.00;99.90
39021;DHT22;25188;51.958;5.842;2022-12-05T09:01:16;5.90;99.90
39021;DHT22;25188;51.958;5.842;2022-12-05T09:03:43;5.90;99.90
39021;DHT22;25188;51.958;5.842;2022-12-05T09:08:39;6.00;99.90
39021;DHT22;25188;51.958;5.842;2022-12-05T09:11:07;6.00;99.90
39021;DHT22;25188;51.958;5.842;2022-12-05T09:13:34;6.00;99.90
39021;DHT22;25188;51.958;5.842;2022-12-05T09:16:12;6.00;99.90
39021;DHT22;25188;51.958;5.842;2022-12-05T09:18:38;6.00;99.90
39021;DHT22;25188;51.958;5.842;2022-12-05T09:21:15;6.00;99.90
39021;DHT22;25188;51.958;5.842;2022-12-05T09:23:41;6.10;99.90
39021;DHT22;25188;51.958;5.842;2022-12-05T09:26:10;6.10;99.90
39021;DHT22;25188;51.958;5.842;2022-12-05T09:28:36;6.00;99.90
39021;DHT22;25188;51.958;5.842;2022-12-05T09:31:08;6.00;99.90
39021;DHT22;25188;51.958;5.842;2022-12-05T09:33:36;6.00;99.90
39021;DHT22;25188;51.958;5.842;2022-12-05T09:36:06;6.10;99.90
39021;DHT22;25188;51.958;5.842;2022-12-05T09:38:33;6.10;99.90
39021;DHT22;25188;51.958;5.842;2022-12-05T09:43:44;6.10;99.90
39021;DHT22;25188;51.958;5.842;2022-12-05T09:47:02;6.10;99.90
39021;DHT22;25188;51.958;5.842;2022-12-05T09:49:02;6.10;99.90
39021;DHT22;25188;51.958;5.842;2022-12-05T09:51:30;6.10;99.90
39021;DHT22;25188;51.958;5.842;2022-12-05T09:53:56;6.20;99.90
39021;DHT22;25188;51.958;5.842;2022-12-05T09:56:25;6.20;99.90
39021;DHT22;25188;51.958;5.842;2022-12-05T09:58:56;6.10;99.90
39021;DHT22;25188;51.958;5.842;2022-12-05T10:01:48;6.10;99.90
39021;DHT22;25188;51.958;5.842;2022-12-05T10:15:17;6.20;99.90
39021;DHT22;25188;51.958;5.842;2022-12-05T10:23:19;6.20;99.90
39021;DHT22;25188;51.958;5.842;2022-12-05T10:25:48;6.30;99.90
39021;DHT22;25188;51.958;5.842;2022-12-05T10:28:36;6.20;99.90
39021;DHT22;25188;51.958;5.842;2022-12-05T10:31:07;6.20;99.90
39021;DHT22;25188;51.958;5.842;2022-12-05T10:33:40;6.20;99.90
39021;DHT22;25188;51.958;5.842;2022-12-05T10:36:16;6.30;99.90
39021;DHT22;25188;51.958;5.842;2022-12-05T10:38:44;6.40;99.90
39021;DHT22;25188;51.958;5.842;2022-12-05T10:41:12;6.30;99.90
39021;DHT22;25188;51.958;5.842;2022-12-05T10:43:45;6.30;99.90
39021;DHT22;25188;51.958;5.842;2022-12-05T10:46:15;6.30;99.90
39021;DHT22;25188;51.958;5.842;2022-12-05T10:48:41;6.30;99.90
39021;DHT22;25188;51.958;5.842;2022-12-05T10:51:16;6.30;99.90
39021;DHT22;25188;51.958;5.842;2022-12-05T10:53:48;6.40;99.90
39021;DHT22;25188;51.958;5.842;2022-12-05T10:56:40;6.40;99.90
39021;DHT22;25188;51.958;5.842;2022-12-05T10:59:08;6.40;99.90
39021;DHT22;25188;51.958;5.842;2022-12-05T11:01:35;6.40;99.90
39021;DHT22;25188;51.958;5.842;2022-12-05T11:04:09;6.40;99.90
39021;DHT22;25188;51.958;5.842;2022-12-05T11:06:35;6.40;99.90
39021;DHT22;25188;51.958;5.842;2022-12-05T11:09:17;6.50;99.90
39021;DHT22;25188;51.958;5.842;2022-12-05T11:11:59;6.40;99.90
39021;DHT22;25188;51.958;5.842;2022-12-05T11:14:26;6.50;99.90
39021;DHT22;25188;51.958;5.842;2022-12-05T11:16:55;6.50;99.90
39021;DHT22;25188;51.958;5.842;2022-12-05T11:21:48;6.50;99.90
39021;DHT22;25188;51.958;5.842;2022-12-05T11:24:37;6.50;99.90
39021;DHT22;25188;51.958;5.842;2022-12-05T11:29:41;6.60;99.90
39021;DHT22;25188;51.958;5.842;2022-12-05T11:32:19;6.60;99.90
39021;DHT22;25188;51.958;5.842;2022-12-05T11:37:43;6.60;99.90
39021;DHT22;25188;51.958;5.842;2022-12-05T11:40:16;6.60;99.90
39021;DHT22;25188;51.958;5.842;2022-12-05T11:42:46;6.60;99.90
39021;DHT22;25188;51.958;5.842;2022-12-05T11:45:27;6.60;99.90
39021;DHT22;25188;51.958;5.842;2022-12-05T11:48:17;6.60;99.90
39021;DHT22;25188;51.958;5.842;2022-12-05T11:51:35;6.60;99.90
39021;DHT22;25188;51.958;5.842;2022-12-05T12:06:48;6.40;99.90
39021;DHT22;25188;51.958;5.842;2022-12-05T12:09:41;6.40;99.90
39021;DHT22;25188;51.958;5.842;2022-12-05T12:17:48;6.40;99.90
39021;DHT22;25188;51.958;5.842;2022-12-05T12:23:11;6.40;99.90
39021;DHT22;25188;51.958;5.842;2022-12-05T12:42:30;6.30;99.90
39021;DHT22;25188;51.958;5.842;2022-12-05T12:50:39;6.30;99.90
39021;DHT22;25188;51.958;5.842;2022-12-05T12:53:40;6.30;99.90
39021;DHT22;25188;51.958;5.842;2022-12-05T13:04:35;6.20;99.90
39021;DHT22;25188;51.958;5.842;2022-12-05T13:07:28;6.20;99.90
39021;DHT22;25188;51.958;5.842;2022-12-05T13:10:46;6.20;99.90
39021;DHT22;25188;51.958;5.842;2022-12-05T13:12:48;6.20;99.90
39021;DHT22;25188;51.958;5.842;2022-12-05T13:15:22;6.20;99.90
39021;DHT22;25188;51.958;5.842;2022-12-05T13:17:49;6.20;99.90
39021;DHT22;25188;51.958;5.842;2022-12-05T13:20:19;6.20;99.90
39021;DHT22;25188;51.958;5.842;2022-12-05T13:22:48;6.20;99.90
39021;DHT22;25188;51.958;5.842;2022-12-05T13:25:16;6.20;99.90
39021;DHT22;25188;51.958;5.842;2022-12-05T13:28:00;6.20;99.90
39021;DHT22;25188;51.958;5.842;2022-12-05T13:30:27;6.20;99.90
39021;DHT22;25188;51.958;5.842;2022-12-05T13:32:56;6.20;99.90
39021;DHT22;25188;51.958;5.842;2022-12-05T13:35:33;6.30;99.90
39021;DHT22;25188;51.958;5.842;2022-12-05T13:38:26;6.20;99.90
39021;DHT22;25188;51.958;5.842;2022-12-05T13:41:11;6.20;99.90
39021;DHT22;25188;51.958;5.842;2022-12-05T13:43:56;6.20;99.90
39021;DHT22;25188;51.958;5.842;2022-12-05T13:46:29;6.20;99.90
39021;DHT22;25188;51.958;5.842;2022-12-05T13:49:02;6.20;99.90
39021;DHT22;25188;51.958;5.842;2022-12-05T13:51:36;6.20;99.90
39021;DHT22;25188;51.958;5.842;2022-12-05T13:54:25;6.20;99.90
39021;DHT22;25188;51.958;5.842;2022-12-05T14:05:34;6.30;99.90
39021;DHT22;25188;51.958;5.842;2022-12-05T14:32:34;6.60;99.90
39021;DHT22;25188;51.958;5.842;2022-12-05T14:37:32;6.50;99.90
39021;DHT22;25188;51.958;5.842;2022-12-05T14:40:02;6.50;99.90
39021;DHT22;25188;51.958;5.842;2022-12-05T14:42:34;6.60;99.90
39021;DHT22;25188;51.958;5.842;2022-12-05T14:45:15;6.70;99.90
39021;DHT22;25188;51.958;5.842;2022-12-05T14:47:49;6.70;99.90
39021;DHT22;25188;51.958;5.842;2022-12-05T14:53:35;6.70;99.90
39021;DHT22;25188;51.958;5.842;2022-12-05T14:56:23;6.80;99.90
39021;DHT22;25188;51.958;5.842;2022-12-05T14:59:06;6.80;99.90
39021;DHT22;25188;51.958;5.842;2022-12-05T15:01:46;6.80;99.90
39021;DHT22;25188;51.958;5.842;2022-12-05T15:04:39;6.80;99.90
39021;DHT22;25188;51.958;5.842;2022-12-05T15:07:12;6.80;99.90
39021;DHT22;25188;51.958;5.842;2022-12-05T15:12:23;6.80;99.90
39021;DHT22;25188;51.958;5.842;2022-12-05T15:17:26;6.70;99.90
39021;DHT22;25188;51.958;5.842;2022-12-05T15:20:02;6.80;99.90
39021;DHT22;25188;51.958;5.842;2022-12-05T15:22:33;6.80;99.90
39021;DHT22;25188;51.958;5.842;2022-12-05T15:25:23;6.70;99.90
39021;DHT22;25188;51.958;5.842;2022-12-05T15:27:59;6.70;99.90
39021;DHT22;25188;51.958;5.842;2022-12-05T15:30:25;6.70;99.90
39021;DHT22;25188;51.958;5.842;2022-12-05T15:32:52;6.70;99.90
39021;DHT22;25188;51.958;5.842;2022-12-05T15:35:18;6.80;99.90
39021;DHT22;25188;51.958;5.842;2022-12-05T15:38:01;6.70;99.90
39021;DHT22;25188;51.958;5.842;2022-12-05T15:40:33;6.60;99.90
39021;DHT22;25188;51.958;5.842;2022-12-05T15:43:28;6.70;99.90
39021;DHT22;25188;51.958;5.842;2022-12-05T15:46:20;6.70;99.90
39021;DHT22;25188;51.958;5.842;2022-12-05T15:48:53;6.70;99.90
39021;DHT22;25188;51.958;5.842;2022-12-05T15:51:22;6.70;99.90
39021;DHT22;25188;51.958;5.842;2022-12-05T15:54:00;6.70;99.90
39021;DHT22;25188;51.958;5.842;2022-12-05T15:57:08;6.70;99.90
39021;DHT22;25188;51.958;5.842;2022-12-05T15:59:39;6.70;99.90
39021;DHT22;25188;51.958;5.842;2022-12-05T16:02:19;6.70;99.90
39021;DHT22;25188;51.958;5.842;2022-12-05T16:04:52;6.60;99.90
39021;DHT22;25188;51.958;5.842;2022-12-05T16:07:20;6.70;99.90
39021;DHT22;25188;51.958;5.842;2022-12-05T16:09:47;6.70;99.90
39021;DHT22;25188;51.958;5.842;2022-12-05T16:14:59;6.70;99.90
39021;DHT22;25188;51.958;5.842;2022-12-05T16:17:39;6.70;99.90
39021;DHT22;25188;51.958;5.842;2022-12-05T16:20:32;6.70;99.90
39021;DHT22;25188;51.958;5.842;2022-12-05T16:23:25;6.60;99.90
39021;DHT22;25188;51.958;5.842;2022-12-05T16:25:51;6.60;99.90
39021;DHT22;25188;51.958;5.842;2022-12-05T16:28:19;6.70;99.90
39021;DHT22;25188;51.958;5.842;2022-12-05T16:30:56;6.70;99.90
39021;DHT22;25188;51.958;5.842;2022-12-05T16:33:22;6.70;99.90
39021;DHT22;25188;51.958;5.842;2022-12-05T16:35:48;6.70;99.90
39021;DHT22;25188;51.958;5.842;2022-12-05T16:38:27;6.70;99.90
39021;DHT22;25188;51.958;5.842;2022-12-05T16:48:30;6.70;99.90
39021;DHT22;25188;51.958;5.842;2022-12-05T16:53:41;6.70;99.90
39021;DHT22;25188;51.958;5.842;2022-12-05T16:56:17;6.60;99.90
39021;DHT22;25188;51.958;5.842;2022-12-05T16:58:44;6.70;99.90
39021;DHT22;25188;51.958;5.842;2022-12-05T17:01:21;6.70;99.90
39021;DHT22;25188;51.958;5.842;2022-12-05T17:03:47;6.70;99.90
39021;DHT22;25188;51.958;5.842;2022-12-05T17:06:13;6.60;99.90
39021;DHT22;25188;51.958;5.842;2022-12-05T17:08:40;6.70;99.90
39021;DHT22;25188;51.958;5.842;2022-12-05T17:11:13;6.60;99.90
39021;DHT22;25188;51.958;5.842;2022-12-05T17:13:39;6.70;99.90
39021;DHT22;25188;51.958;5.842;2022-12-05T17:16:05;6.80;99.90
39021;DHT22;25188;51.958;5.842;2022-12-05T17:18:32;6.70;99.90
39021;DHT22;25188;51.958;5.842;2022-12-05T17:20:59;6.60;99.90
39021;DHT22;25188;51.958;5.842;2022-12-05T17:23:25;6.70;99.90
39021;DHT22;25188;51.958;5.842;2022-12-05T17:25:55;6.70;99.90
39021;DHT22;25188;51.958;5.842;2022-12-05T17:28:22;6.70;99.90
39021;DHT22;25188;51.958;5.842;2022-12-05T17:30:48;6.70;99.90
39021;DHT22;25188;51.958;5.842;2022-12-05T17:33:16;6.70;99.90
39021;DHT22;25188;51.958;5.842;2022-12-05T17:35:43;6.70;99.90
39021;DHT22;25188;51.958;5.842;2022-12-05T17:38:09;6.70;99.90
39021;DHT22;25188;51.958;5.842;2022-12-05T17:40:38;6.70;99.90
39021;DHT22;25188;51.958;5.842;2022-12-05T17:43:10;6.70;99.90
39021;DHT22;25188;51.958;5.842;2022-12-05T17:45:37;6.70;99.90
39021;DHT22;25188;51.958;5.842;2022-12-05T17:48:02;6.70;99.90
39021;DHT22;25188;51.958;5.842;2022-12-05T17:50:28;6.70;99.90
39021;DHT22;25188;51.958;5.842;2022-12-05T17:52:55;6.70;99.90
39021;DHT22;25188;51.958;5.842;2022-12-05T17:55:28;6.60;99.90
39021;DHT22;25188;51.958;5.842;2022-12-05T17:57:54;6.70;99.90
39021;DHT22;25188;51.958;5.842;2022-12-05T18:00:21;6.70;99.90
39021;DHT22;25188;51.958;5.842;2022-12-05T18:02:47;6.70;99.90
39021;DHT22;25188;51.958;5.842;2022-12-05T18:05:14;6.70;99.90
39021;DHT22;25188;51.958;5.842;2022-12-05T18:07:41;6.60;99.90
39021;DHT22;25188;51.958;5.842;2022-12-05T18:10:10;6.60;99.90
39021;DHT22;25188;51.958;5.842;2022-12-05T18:12:36;6.70;99.90
39021;DHT22;25188;51.958;5.842;2022-12-05T18:15:03;6.70;99.90
39021;DHT22;25188;51.958;5.842;2022-12-05T18:17:29;6.70;99.90
39021;DHT22;25188;51.958;5.842;2022-12-05T18:19:55;6.70;99.90
39021;DHT22;25188;51.958;5.842;2022-12-05T18:22:22;6.70;99.90
39021;DHT22;25188;51.958;5.842;2022-12-05T18:24:48;6.70;99.90
39021;DHT22;25188;51.958;5.842;2022-12-05T18:27:13;6.80;99.90
39021;DHT22;25188;51.958;5.842;2022-12-05T18:29:39;6.70;99.90
39021;DHT22;25188;51.958;5.842;2022-12-05T18:32:05;6.70;99.90
39021;DHT22;25188;51.958;5.842;2022-12-05T18:34:31;6.70;99.90
39021;DHT22;25188;51.958;5.842;2022-12-05T18:36:56;6.70;99.90
39021;DHT22;25188;51.958;5.842;2022-12-05T18:39:22;6.70;99.90
39021;DHT22;25188;51.958;5.842;2022-12-05T18:41:49;6.70;99.90
39021;DHT22;25188;51.958;5.842;2022-12-05T18:44:15;6.70;99.90
39021;DHT22;25188;51.958;5.842;2022-12-05T18:46:41;6.70;99.90
39021;DHT22;25188;51.958;5.842;2022-12-05T18:49:06;6.70;99.90
39021;DHT22;25188;51.958;5.842;2022-12-05T18:51:32;6.70;99.90
39021;DHT22;25188;51.958;5.842;2022-12-05T18:53:58;6.70;99.90
39021;DHT22;25188;51.958;5.842;2022-12-05T18:56:29;6.60;99.90
39021;DHT22;25188;51.958;5.842;2022-12-05T18:58:57;6.70;99.90
39021;DHT22;25188;51.958;5.842;2022-12-05T19:01:24;6.60;99.90
39021;DHT22;25188;51.958;5.842;2022-12-05T19:03:50;6.60;99.90